sensor_id;sensor_type;location;lat;lon;timestamp;temperature;humidity
68511;SHT31;55512;50.102;19.958;2023-01-30T00:00:25;0.17;63.88
68511;SHT31;55512;50.102;19.958;2023-01-30T00:02:50;0.20;63.80
68511;SHT31;55512;50.102;19.958;2023-01-30T00:05:16;0.24;63.85
68511;SHT31;55512;50.102;19.958;2023-01-30T00:07:41;0.27;63.84
68511;SHT31;55512;50.102;19.958;2023-01-30T00:10:07;0.30;63.80
68511;SHT31;55512;50.102;19.958;2023-01-30T00:12:34;0.33;63.79
68511;SHT31;55512;50.102;19.958;2023-01-30T00:14:59;0.35;63.72
68511;SHT31;55512;50.102;19.958;2023-01-30T00:17:25;0.36;63.63
68511;SHT31;55512;50.102;19.958;2023-01-30T00:19:50;0.37;63.60
68511;SHT31;55512;50.102;19.958;2023-01-30T00:22:15;0.37;63.63
68511;SHT31;55512;50.102;19.958;2023-01-30T00:24:41;0.39;63.61
68511;SHT31;55512;50.102;19.958;2023-01-30T00:27:06;0.40;63.57
68511;SHT31;55512;50.102;19.958;2023-01-30T00:29:32;0.40;63.50
68511;SHT31;55512;50.102;19.958;2023-01-30T00:31:57;0.42;63.50
68511;SHT31;55512;50.102;19.958;2023-01-30T00:34:23;0.45;63.50
68511;SHT31;55512;50.102;19.958;2023-01-30T00:36:48;0.48;63.44
68511;SHT31;55512;50.102;19.958;2023-01-30T00:39:13;0.49;63.40
68511;SHT31;55512;50.102;19.958;2023-01-30T00:41:39;0.51;63.40
68511;SHT31;55512;50.102;19.958;2023-01-30T00:44:23;0.53;63.37
68511;SHT31;55512;50.102;19.958;2023-01-30T00:47:07;0.53;63.33
68511;SHT31;55512;50.102;19.958;2023-01-30T00:49:34;0.53;63.36
68511;SHT31;55512;50.102;19.958;2023-01-30T00:52:01;0.55;63.40
68511;SHT31;55512;50.102;19.958;2023-01-30T00:54:28;0.57;63.40
68511;SHT31;55512;50.102;19.958;2023-01-30T00:56:54;0.60;63.36
68511;SHT31;55512;50.102;19.958;2023-01-30T00:59:20;0.60;63.34
68511;SHT31;55512;50.102;19.958;2023-01-30T01:01:45;0.61;63.32
68511;SHT31;55512;50.102;19.958;2023-01-30T01:04:11;0.62;63.30
68511;SHT31;55512;50.102;19.958;2023-01-30T01:06:37;0.62;63.36
68511;SHT31;55512;50.102;19.958;2023-01-30T01:09:04;0.63;63.32
68511;SHT31;55512;50.102;19.958;2023-01-30T01:11:30;0.64;63.34
68511;SHT31;55512;50.102;19.958;2023-01-30T01:13:57;0.65;63.39
68511;SHT31;55512;50.102;19.958;2023-01-30T01:16:25;0.65;63.40
68511;SHT31;55512;50.102;19.958;2023-01-30T01:18:53;0.66;63.42
68511;SHT31;55512;50.102;19.958;2023-01-30T01:21:19;0.66;63.44
68511;SHT31;55512;50.102;19.958;2023-01-30T01:23:49;0.67;63.50
68511;SHT31;55512;50.102;19.958;2023-01-30T01:26:21;0.68;63.50
68511;SHT31;55512;50.102;19.958;2023-01-30T01:28:47;0.66;63.50
68511;SHT31;55512;50.102;19.958;2023-01-30T01:31:14;0.64;63.57
68511;SHT31;55512;50.102;19.958;2023-01-30T01:33:41;0.62;63.61
68511;SHT31;55512;50.102;19.958;2023-01-30T01:36:07;0.60;63.69
68511;SHT31;55512;50.102;19.958;2023-01-30T01:38:33;0.56;63.76
68511;SHT31;55512;50.102;19.958;2023-01-30T01:40:59;0.53;63.80
68511;SHT31;55512;50.102;19.958;2023-01-30T01:43:30;0.50;63.85
68511;SHT31;55512;50.102;19.958;2023-01-30T01:46:01;0.46;63.90
68511;SHT31;55512;50.102;19.958;2023-01-30T01:48:46;0.42;63.97
68511;SHT31;55512;50.102;19.958;2023-01-30T01:51:28;0.38;64.09
68511;SHT31;55512;50.102;19.958;2023-01-30T01:56:43;0.31;64.24
68511;SHT31;55512;50.102;19.958;2023-01-30T01:59:18;0.26;64.30
68511;SHT31;55512;50.102;19.958;2023-01-30T02:01:59;0.22;64.36
68511;SHT31;55512;50.102;19.958;2023-01-30T02:04:29;0.20;64.40
68511;SHT31;55512;50.102;19.958;2023-01-30T02:07:16;0.17;64.40
68511;SHT31;55512;50.102;19.958;2023-01-30T02:09:45;0.15;64.42
68511;SHT31;55512;50.102;19.958;2023-01-30T02:12:11;0.13;64.50
68511;SHT31;55512;50.102;19.958;2023-01-30T02:14:39;0.12;64.50
68511;SHT31;55512;50.102;19.958;2023-01-30T02:17:06;0.10;64.59
68511;SHT31;55512;50.102;19.958;2023-01-30T02:19:54;0.09;64.60
68511;SHT31;55512;50.102;19.958;2023-01-30T02:22:39;0.06;64.65
68511;SHT31;55512;50.102;19.958;2023-01-30T02:28:47;-0.01;64.85
68511;SHT31;55512;50.102;19.958;2023-01-30T02:31:38;-0.03;64.92
68511;SHT31;55512;50.102;19.958;2023-01-30T02:51:04;-0.30;65.62
68511;SHT31;55512;50.102;19.958;2023-01-30T02:53:35;-0.29;65.64
68511;SHT31;55512;50.102;19.958;2023-01-30T02:56:02;-0.28;65.68
68511;SHT31;55512;50.102;19.958;2023-01-30T02:58:29;-0.28;65.70
68511;SHT31;55512;50.102;19.958;2023-01-30T03:16:32;-0.28;65.70
68511;SHT31;55512;50.102;19.958;2023-01-30T03:19:03;-0.29;65.69
68511;SHT31;55512;50.102;19.958;2023-01-30T03:21:38;-0.29;65.61
68511;SHT31;55512;50.102;19.958;2023-01-30T03:24:06;-0.28;65.60
68511;SHT31;55512;50.102;19.958;2023-01-30T03:26:32;-0.29;65.60
68511;SHT31;55512;50.102;19.958;2023-01-30T03:29:04;-0.29;65.50
68511;SHT31;55512;50.102;19.958;2023-01-30T03:31:30;-0.28;65.44
68511;SHT31;55512;50.102;19.958;2023-01-30T03:33:55;-0.28;65.40
68511;SHT31;55512;50.102;19.958;2023-01-30T03:36:20;-0.27;65.39
68511;SHT31;55512;50.102;19.958;2023-01-30T03:38:46;-0.28;65.36
68511;SHT31;55512;50.102;19.958;2023-01-30T03:41:12;-0.27;65.37
68511;SHT31;55512;50.102;19.958;2023-01-30T03:43:37;-0.27;65.33
68511;SHT31;55512;50.102;19.958;2023-01-30T03:46:03;-0.28;65.30
68511;SHT31;55512;50.102;19.958;2023-01-30T03:48:28;-0.29;65.30
68511;SHT31;55512;50.102;19.958;2023-01-30T03:50:54;-0.30;65.26
68511;SHT31;55512;50.102;19.958;2023-01-30T03:53:20;-0.35;65.20
68511;SHT31;55512;50.102;19.958;2023-01-30T03:55:45;-0.37;65.19
68511;SHT31;55512;50.102;19.958;2023-01-30T03:58:11;-0.38;65.10
68511;SHT31;55512;50.102;19.958;2023-01-30T04:00:36;-0.42;65.07
68511;SHT31;55512;50.102;19.958;2023-01-30T04:03:02;-0.46;65.00
68511;SHT31;55512;50.102;19.958;2023-01-30T04:05:27;-0.47;65.00
68511;SHT31;55512;50.102;19.958;2023-01-30T04:07:56;-0.47;64.99
68511;SHT31;55512;50.102;19.958;2023-01-30T04:10:22;-0.46;64.90
68511;SHT31;55512;50.102;19.958;2023-01-30T04:12:49;-0.44;64.82
68511;SHT31;55512;50.102;19.958;2023-01-30T04:15:15;-0.46;64.77
68511;SHT31;55512;50.102;19.958;2023-01-30T04:17:41;-0.48;64.67
68511;SHT31;55512;50.102;19.958;2023-01-30T04:20:08;-0.48;64.60
68511;SHT31;55512;50.102;19.958;2023-01-30T04:22:35;-0.51;64.51
68511;SHT31;55512;50.102;19.958;2023-01-30T04:25:01;-0.53;64.31
68511;SHT31;55512;50.102;19.958;2023-01-30T04:27:27;-0.56;64.14
68511;SHT31;55512;50.102;19.958;2023-01-30T04:29:53;-0.56;64.13
68511;SHT31;55512;50.102;19.958;2023-01-30T04:32:18;-0.56;64.10
68511;SHT31;55512;50.102;19.958;2023-01-30T04:34:44;-0.55;64.10
68511;SHT31;55512;50.102;19.958;2023-01-30T04:37:10;-0.55;64.07
68511;SHT31;55512;50.102;19.958;2023-01-30T04:39:36;-0.57;63.95
68511;SHT31;55512;50.102;19.958;2023-01-30T04:42:02;-0.57;63.90
68511;SHT31;55512;50.102;19.958;2023-01-30T04:44:28;-0.56;63.90
68511;SHT31;55512;50.102;19.958;2023-01-30T04:46:53;-0.54;63.82
68511;SHT31;55512;50.102;19.958;2023-01-30T04:49:19;-0.54;63.86
68511;SHT31;55512;50.102;19.958;2023-01-30T04:51:45;-0.52;63.80
68511;SHT31;55512;50.102;19.958;2023-01-30T04:54:10;-0.50;63.80
68511;SHT31;55512;50.102;19.958;2023-01-30T04:56:36;-0.49;63.75
68511;SHT31;55512;50.102;19.958;2023-01-30T04:59:02;-0.48;63.63
68511;SHT31;55512;50.102;19.958;2023-01-30T05:01:31;-0.47;63.51
68511;SHT31;55512;50.102;19.958;2023-01-30T05:04:02;-0.47;63.43
68511;SHT31;55512;50.102;19.958;2023-01-30T05:06:29;-0.47;63.28
68511;SHT31;55512;50.102;19.958;2023-01-30T05:08:56;-0.47;63.20
68511;SHT31;55512;50.102;19.958;2023-01-30T05:11:23;-0.45;63.13
68511;SHT31;55512;50.102;19.958;2023-01-30T05:13:52;-0.45;62.93
68511;SHT31;55512;50.102;19.958;2023-01-30T05:16:18;-0.42;62.88
68511;SHT31;55512;50.102;19.958;2023-01-30T05:18:46;-0.41;62.77
68511;SHT31;55512;50.102;19.958;2023-01-30T05:21:14;-0.39;62.56
68511;SHT31;55512;50.102;19.958;2023-01-30T05:23:43;-0.38;62.48
68511;SHT31;55512;50.102;19.958;2023-01-30T05:26:10;-0.36;62.36
68511;SHT31;55512;50.102;19.958;2023-01-30T05:28:37;-0.35;62.26
68511;SHT31;55512;50.102;19.958;2023-01-30T05:31:04;-0.33;62.06
68511;SHT31;55512;50.102;19.958;2023-01-30T05:33:32;-0.30;61.85
68511;SHT31;55512;50.102;19.958;2023-01-30T05:35:58;-0.29;61.57
68511;SHT31;55512;50.102;19.958;2023-01-30T05:38:24;-0.29;61.25
68511;SHT31;55512;50.102;19.958;2023-01-30T05:41:00;-0.28;61.16
68511;SHT31;55512;50.102;19.958;2023-01-30T05:43:32;-0.28;60.95
68511;SHT31;55512;50.102;19.958;2023-01-30T05:46:00;-0.27;60.90
68511;SHT31;55512;50.102;19.958;2023-01-30T05:48:27;-0.25;60.86
68511;SHT31;55512;50.102;19.958;2023-01-30T05:50:54;-0.23;60.89
68511;SHT31;55512;50.102;19.958;2023-01-30T05:53:22;-0.20;60.79
68511;SHT31;55512;50.102;19.958;2023-01-30T05:58:22;-0.18;60.56
68511;SHT31;55512;50.102;19.958;2023-01-30T06:00:47;-0.17;60.54
68511;SHT31;55512;50.102;19.958;2023-01-30T06:03:13;-0.17;60.35
68511;SHT31;55512;50.102;19.958;2023-01-30T06:05:38;-0.16;60.24
68511;SHT31;55512;50.102;19.958;2023-01-30T06:08:04;-0.13;60.06
68511;SHT31;55512;50.102;19.958;2023-01-30T06:10:29;-0.12;59.86
68511;SHT31;55512;50.102;19.958;2023-01-30T06:12:54;-0.11;59.53
68511;SHT31;55512;50.102;19.958;2023-01-30T06:15:20;-0.10;59.47
68511;SHT31;55512;50.102;19.958;2023-01-30T06:17:45;-0.10;59.38
68511;SHT31;55512;50.102;19.958;2023-01-30T06:20:11;-0.08;59.24
68511;SHT31;55512;50.102;19.958;2023-01-30T06:22:37;-0.08;59.09
68511;SHT31;55512;50.102;19.958;2023-01-30T06:25:03;-0.06;59.05
68511;SHT31;55512;50.102;19.958;2023-01-30T06:27:29;-0.05;58.88
68511;SHT31;55512;50.102;19.958;2023-01-30T06:29:54;-0.01;58.86
68511;SHT31;55512;50.102;19.958;2023-01-30T06:32:20;0.02;58.91
68511;SHT31;55512;50.102;19.958;2023-01-30T06:34:45;0.04;58.91
68511;SHT31;55512;50.102;19.958;2023-01-30T06:37:11;0.05;58.80
68511;SHT31;55512;50.102;19.958;2023-01-30T06:39:36;0.05;58.63
68511;SHT31;55512;50.102;19.958;2023-01-30T06:42:02;0.06;58.60
68511;SHT31;55512;50.102;19.958;2023-01-30T06:44:27;0.09;58.56
68511;SHT31;55512;50.102;19.958;2023-01-30T06:46:53;0.10;58.50
68511;SHT31;55512;50.102;19.958;2023-01-30T06:49:18;0.10;58.49
68511;SHT31;55512;50.102;19.958;2023-01-30T06:51:44;0.12;58.35
68511;SHT31;55512;50.102;19.958;2023-01-30T06:54:09;0.12;58.28
68511;SHT31;55512;50.102;19.958;2023-01-30T06:56:35;0.14;58.20
68511;SHT31;55512;50.102;19.958;2023-01-30T06:59:00;0.17;58.22
68511;SHT31;55512;50.102;19.958;2023-01-30T07:01:25;0.18;58.01
68511;SHT31;55512;50.102;19.958;2023-01-30T07:03:51;0.21;58.11
68511;SHT31;55512;50.102;19.958;2023-01-30T07:06:16;0.25;57.93
68511;SHT31;55512;50.102;19.958;2023-01-30T07:08:42;0.27;57.91
68511;SHT31;55512;50.102;19.958;2023-01-30T07:11:08;0.31;57.83
68511;SHT31;55512;50.102;19.958;2023-01-30T07:13:34;0.35;57.88
68511;SHT31;55512;50.102;19.958;2023-01-30T07:16:00;0.39;57.87
68511;SHT31;55512;50.102;19.958;2023-01-30T07:18:26;0.42;57.85
68511;SHT31;55512;50.102;19.958;2023-01-30T07:20:51;0.47;57.92
68511;SHT31;55512;50.102;19.958;2023-01-30T07:23:17;0.50;57.93
68511;SHT31;55512;50.102;19.958;2023-01-30T07:25:42;0.53;57.82
68511;SHT31;55512;50.102;19.958;2023-01-30T07:28:08;0.57;57.67
68511;SHT31;55512;50.102;19.958;2023-01-30T07:30:34;0.61;57.62
68511;SHT31;55512;50.102;19.958;2023-01-30T07:33:01;0.65;57.63
68511;SHT31;55512;50.102;19.958;2023-01-30T07:35:30;0.68;57.57
68511;SHT31;55512;50.102;19.958;2023-01-30T07:37:59;0.70;57.43
68511;SHT31;55512;50.102;19.958;2023-01-30T07:40:24;0.73;57.45
68511;SHT31;55512;50.102;19.958;2023-01-30T07:42:58;0.77;57.33
68511;SHT31;55512;50.102;19.958;2023-01-30T07:48:06;0.82;56.99
68511;SHT31;55512;50.102;19.958;2023-01-30T07:50:34;0.84;56.92
68511;SHT31;55512;50.102;19.958;2023-01-30T07:53:03;0.87;56.73
68511;SHT31;55512;50.102;19.958;2023-01-30T07:55:31;0.90;56.86
68511;SHT31;55512;50.102;19.958;2023-01-30T07:57:57;0.95;56.84
68511;SHT31;55512;50.102;19.958;2023-01-30T08:00:23;0.97;56.86
68511;SHT31;55512;50.102;19.958;2023-01-30T08:02:49;1.02;56.74
68511;SHT31;55512;50.102;19.958;2023-01-30T08:05:14;1.07;56.79
68511;SHT31;55512;50.102;19.958;2023-01-30T08:07:40;1.11;56.64
68511;SHT31;55512;50.102;19.958;2023-01-30T08:10:06;1.14;56.57
68511;SHT31;55512;50.102;19.958;2023-01-30T08:12:32;1.18;56.36
68511;SHT31;55512;50.102;19.958;2023-01-30T08:14:58;1.21;56.23
68511;SHT31;55512;50.102;19.958;2023-01-30T08:17:23;1.23;55.98
68511;SHT31;55512;50.102;19.958;2023-01-30T08:19:49;1.26;55.79
68511;SHT31;55512;50.102;19.958;2023-01-30T08:22:14;1.29;55.79
68511;SHT31;55512;50.102;19.958;2023-01-30T08:24:40;1.35;55.86
68511;SHT31;55512;50.102;19.958;2023-01-30T08:27:05;1.42;55.63
68511;SHT31;55512;50.102;19.958;2023-01-30T08:29:31;1.48;55.49
68511;SHT31;55512;50.102;19.958;2023-01-30T08:31:57;1.53;55.48
68511;SHT31;55512;50.102;19.958;2023-01-30T08:34:24;1.61;55.42
68511;SHT31;55512;50.102;19.958;2023-01-30T08:36:50;1.66;55.34
68511;SHT31;55512;50.102;19.958;2023-01-30T08:39:15;1.72;55.32
68511;SHT31;55512;50.102;19.958;2023-01-30T08:41:41;1.78;55.20
68511;SHT31;55512;50.102;19.958;2023-01-30T08:44:10;1.85;55.21
68511;SHT31;55512;50.102;19.958;2023-01-30T08:46:37;1.94;55.19
68511;SHT31;55512;50.102;19.958;2023-01-30T08:49:04;2.02;55.10
68511;SHT31;55512;50.102;19.958;2023-01-30T08:51:30;2.10;54.96
68511;SHT31;55512;50.102;19.958;2023-01-30T08:53:57;2.17;54.93
68511;SHT31;55512;50.102;19.958;2023-01-30T08:56:23;2.23;54.77
68511;SHT31;55512;50.102;19.958;2023-01-30T08:58:48;2.29;54.73
68511;SHT31;55512;50.102;19.958;2023-01-30T09:01:14;2.36;54.64
68511;SHT31;55512;50.102;19.958;2023-01-30T09:03:40;2.41;54.51
68511;SHT31;55512;50.102;19.958;2023-01-30T09:06:06;2.49;54.63
68511;SHT31;55512;50.102;19.958;2023-01-30T09:08:33;2.57;54.68
68511;SHT31;55512;50.102;19.958;2023-01-30T09:10:59;2.66;54.75
68511;SHT31;55512;50.102;19.958;2023-01-30T09:13:28;2.75;54.57
68511;SHT31;55512;50.102;19.958;2023-01-30T09:15:55;2.79;54.31
68511;SHT31;55512;50.102;19.958;2023-01-30T09:18:21;2.83;54.32
68511;SHT31;55512;50.102;19.958;2023-01-30T09:20:47;2.90;54.45
68511;SHT31;55512;50.102;19.958;2023-01-30T09:23:13;2.91;54.31
68511;SHT31;55512;50.102;19.958;2023-01-30T09:25:39;2.91;54.41
68511;SHT31;55512;50.102;19.958;2023-01-30T09:28:04;2.91;54.47
68511;SHT31;55512;50.102;19.958;2023-01-30T09:30:30;2.90;54.65
68511;SHT31;55512;50.102;19.958;2023-01-30T09:32:55;2.89;54.79
68511;SHT31;55512;50.102;19.958;2023-01-30T09:35:21;2.88;54.98
68511;SHT31;55512;50.102;19.958;2023-01-30T09:37:50;2.86;55.31
68511;SHT31;55512;50.102;19.958;2023-01-30T09:40:25;2.87;55.64
68511;SHT31;55512;50.102;19.958;2023-01-30T09:51:44;2.81;56.91
68511;SHT31;55512;50.102;19.958;2023-01-30T09:54:34;2.83;57.11
68511;SHT31;55512;50.102;19.958;2023-01-30T09:59:34;2.90;57.46
68511;SHT31;55512;50.102;19.958;2023-01-30T10:05:23;2.97;57.69
68511;SHT31;55512;50.102;19.958;2023-01-30T10:08:13;3.01;57.85
68511;SHT31;55512;50.102;19.958;2023-01-30T10:25:51;3.36;58.01
68511;SHT31;55512;50.102;19.958;2023-01-30T10:28:24;3.40;58.00
68511;SHT31;55512;50.102;19.958;2023-01-30T10:31:02;3.43;58.03
68511;SHT31;55512;50.102;19.958;2023-01-30T10:33:35;3.50;58.09
68511;SHT31;55512;50.102;19.958;2023-01-30T10:36:20;3.52;58.18
68511;SHT31;55512;50.102;19.958;2023-01-30T10:38:58;3.51;58.40
68511;SHT31;55512;50.102;19.958;2023-01-30T10:41:39;3.48;58.77
68511;SHT31;55512;50.102;19.958;2023-01-30T10:44:19;3.46;59.20
68511;SHT31;55512;50.102;19.958;2023-01-30T10:46:53;3.44;59.57
68511;SHT31;55512;50.102;19.958;2023-01-30T11:03:37;3.39;61.49
68511;SHT31;55512;50.102;19.958;2023-01-30T11:06:24;3.38;62.18
68511;SHT31;55512;50.102;19.958;2023-01-30T11:08:51;3.33;62.68
68511;SHT31;55512;50.102;19.958;2023-01-30T11:13:47;3.22;63.70
68511;SHT31;55512;50.102;19.958;2023-01-30T11:16:12;3.19;64.31
68511;SHT31;55512;50.102;19.958;2023-01-30T11:18:49;3.18;64.61
68511;SHT31;55512;50.102;19.958;2023-01-30T11:21:23;3.15;64.77
68511;SHT31;55512;50.102;19.958;2023-01-30T11:23:52;3.16;64.71
68511;SHT31;55512;50.102;19.958;2023-01-30T11:26:20;3.19;64.76
68511;SHT31;55512;50.102;19.958;2023-01-30T11:28:53;3.23;64.87
68511;SHT31;55512;50.102;19.958;2023-01-30T11:31:24;3.26;64.97
68511;SHT31;55512;50.102;19.958;2023-01-30T11:34:00;3.28;65.14
68511;SHT31;55512;50.102;19.958;2023-01-30T11:36:31;3.29;65.22
68511;SHT31;55512;50.102;19.958;2023-01-30T11:39:03;3.28;65.34
68511;SHT31;55512;50.102;19.958;2023-01-30T11:44:22;3.24;65.70
68511;SHT31;55512;50.102;19.958;2023-01-30T11:46:52;3.22;65.86
68511;SHT31;55512;50.102;19.958;2023-01-30T11:49:18;3.22;65.96
68511;SHT31;55512;50.102;19.958;2023-01-30T11:51:46;3.20;66.03
68511;SHT31;55512;50.102;19.958;2023-01-30T11:54:39;3.18;66.12
68511;SHT31;55512;50.102;19.958;2023-01-30T11:57:14;3.15;66.31
68511;SHT31;55512;50.102;19.958;2023-01-30T11:59:44;3.14;66.60
68511;SHT31;55512;50.102;19.958;2023-01-30T12:02:23;3.13;66.70
68511;SHT31;55512;50.102;19.958;2023-01-30T12:05:03;3.13;66.71
68511;SHT31;55512;50.102;19.958;2023-01-30T12:07:43;3.11;66.74
68511;SHT31;55512;50.102;19.958;2023-01-30T12:10:44;3.10;66.83
68511;SHT31;55512;50.102;19.958;2023-01-30T12:13:54;3.09;67.29
68511;SHT31;55512;50.102;19.958;2023-01-30T12:19:30;3.11;67.25
68511;SHT31;55512;50.102;19.958;2023-01-30T12:29:04;3.17;66.92
68511;SHT31;55512;50.102;19.958;2023-01-30T12:31:46;3.18;67.04
68511;SHT31;55512;50.102;19.958;2023-01-30T12:34:20;3.17;67.63
68511;SHT31;55512;50.102;19.958;2023-01-30T12:39:48;3.21;67.46
68511;SHT31;55512;50.102;19.958;2023-01-30T12:42:25;3.20;67.95
68511;SHT31;55512;50.102;19.958;2023-01-30T12:45:27;3.22;68.05
68511;SHT31;55512;50.102;19.958;2023-01-30T12:51:03;3.19;68.36
68511;SHT31;55512;50.102;19.958;2023-01-30T13:02:51;3.13;68.86
68511;SHT31;55512;50.102;19.958;2023-01-30T13:05:40;3.11;68.92
68511;SHT31;55512;50.102;19.958;2023-01-30T13:14:17;3.13;69.25
68511;SHT31;55512;50.102;19.958;2023-01-30T13:29:03;3.10;69.97
68511;SHT31;55512;50.102;19.958;2023-01-30T13:31:40;3.11;70.11
68511;SHT31;55512;50.102;19.958;2023-01-30T13:34:21;3.08;70.30
68511;SHT31;55512;50.102;19.958;2023-01-30T13:39:38;3.05;70.60
68511;SHT31;55512;50.102;19.958;2023-01-30T13:45:20;3.06;70.98
68511;SHT31;55512;50.102;19.958;2023-01-30T13:47:57;3.05;71.42
68511;SHT31;55512;50.102;19.958;2023-01-30T13:53:27;2.98;71.43
68511;SHT31;55512;50.102;19.958;2023-01-30T14:02:21;2.95;71.73
68511;SHT31;55512;50.102;19.958;2023-01-30T14:04:52;2.93;71.85
68511;SHT31;55512;50.102;19.958;2023-01-30T14:07:24;2.94;71.87
68511;SHT31;55512;50.102;19.958;2023-01-30T14:12:45;2.96;71.82
68511;SHT31;55512;50.102;19.958;2023-01-30T14:17:56;2.93;72.35
68511;SHT31;55512;50.102;19.958;2023-01-30T14:20:24;2.89;72.57
68511;SHT31;55512;50.102;19.958;2023-01-30T14:23:00;2.88;72.53
68511;SHT31;55512;50.102;19.958;2023-01-30T14:25:30;2.89;72.49
68511;SHT31;55512;50.102;19.958;2023-01-30T14:38:29;2.94;72.18
68511;SHT31;55512;50.102;19.958;2023-01-30T14:48:35;3.02;71.58
68511;SHT31;55512;50.102;19.958;2023-01-30T14:51:11;3.08;71.43
68511;SHT31;55512;50.102;19.958;2023-01-30T14:54:08;3.10;71.14
68511;SHT31;55512;50.102;19.958;2023-01-30T14:56:59;3.13;70.78
68511;SHT31;55512;50.102;19.958;2023-01-30T14:59:35;3.15;70.49
68511;SHT31;55512;50.102;19.958;2023-01-30T15:12:53;3.33;69.43
68511;SHT31;55512;50.102;19.958;2023-01-30T15:15:29;3.35;69.22
68511;SHT31;55512;50.102;19.958;2023-01-30T15:18:12;3.37;69.16
68511;SHT31;55512;50.102;19.958;2023-01-30T15:27:01;3.43;68.97
68511;SHT31;55512;50.102;19.958;2023-01-30T15:33:20;3.49;68.80
68511;SHT31;55512;50.102;19.958;2023-01-30T15:35:48;3.51;68.80
68511;SHT31;55512;50.102;19.958;2023-01-30T15:40:53;3.56;68.74
68511;SHT31;55512;50.102;19.958;2023-01-30T15:43:34;3.59;68.70
68511;SHT31;55512;50.102;19.958;2023-01-30T15:51:40;3.62;69.52
68511;SHT31;55512;50.102;19.958;2023-01-30T15:54:09;3.63;69.38
68511;SHT31;55512;50.102;19.958;2023-01-30T15:56:43;3.64;69.30
68511;SHT31;55512;50.102;19.958;2023-01-30T15:59:26;3.63;69.30
68511;SHT31;55512;50.102;19.958;2023-01-30T16:02:13;3.63;69.30
68511;SHT31;55512;50.102;19.958;2023-01-30T16:05:44;3.63;69.32
68511;SHT31;55512;50.102;19.958;2023-01-30T16:07:43;3.62;69.37
68511;SHT31;55512;50.102;19.958;2023-01-30T16:10:13;3.63;69.40
68511;SHT31;55512;50.102;19.958;2023-01-30T16:13:07;3.65;69.45
68511;SHT31;55512;50.102;19.958;2023-01-30T16:15:34;3.65;69.52
68511;SHT31;55512;50.102;19.958;2023-01-30T16:18:17;3.65;69.59
68511;SHT31;55512;50.102;19.958;2023-01-30T16:20:53;3.64;69.68
68511;SHT31;55512;50.102;19.958;2023-01-30T16:26:25;3.63;69.80
68511;SHT31;55512;50.102;19.958;2023-01-30T16:28:59;3.64;69.77
68511;SHT31;55512;50.102;19.958;2023-01-30T16:31:37;3.65;69.70
68511;SHT31;55512;50.102;19.958;2023-01-30T16:34:05;3.65;69.70
68511;SHT31;55512;50.102;19.958;2023-01-30T16:36:46;3.65;69.75
68511;SHT31;55512;50.102;19.958;2023-01-30T16:41:58;3.67;69.71
68511;SHT31;55512;50.102;19.958;2023-01-30T16:44:26;3.67;69.73
68511;SHT31;55512;50.102;19.958;2023-01-30T16:49:24;3.66;69.80
68511;SHT31;55512;50.102;19.958;2023-01-30T16:54:47;3.72;69.80
68511;SHT31;55512;50.102;19.958;2023-01-30T16:57:22;3.73;69.80
68511;SHT31;55512;50.102;19.958;2023-01-30T16:59:52;3.74;69.80
68511;SHT31;55512;50.102;19.958;2023-01-30T17:02:23;3.75;69.80
68511;SHT31;55512;50.102;19.958;2023-01-30T17:04:54;3.74;69.80
68511;SHT31;55512;50.102;19.958;2023-01-30T17:07:31;3.75;69.80
68511;SHT31;55512;50.102;19.958;2023-01-30T17:10:01;3.76;69.80
68511;SHT31;55512;50.102;19.958;2023-01-30T17:17:36;3.78;69.50
68511;SHT31;55512;50.102;19.958;2023-01-30T17:20:03;3.79;69.48
68511;SHT31;55512;50.102;19.958;2023-01-30T17:22:29;3.81;69.38
68511;SHT31;55512;50.102;19.958;2023-01-30T17:25:02;3.80;69.30
68511;SHT31;55512;50.102;19.958;2023-01-30T17:27:38;3.80;69.22
68511;SHT31;55512;50.102;19.958;2023-01-30T17:30:11;3.82;69.20
68511;SHT31;55512;50.102;19.958;2023-01-30T17:32:41;3.83;69.12
68511;SHT31;55512;50.102;19.958;2023-01-30T17:35:07;3.84;69.07
68511;SHT31;55512;50.102;19.958;2023-01-30T17:37:33;3.86;69.00
68511;SHT31;55512;50.102;19.958;2023-01-30T17:39:59;3.89;69.00
68511;SHT31;55512;50.102;19.958;2023-01-30T17:42:25;3.92;68.94
68511;SHT31;55512;50.102;19.958;2023-01-30T17:44:50;3.92;68.82
68511;SHT31;55512;50.102;19.958;2023-01-30T17:47:18;3.92;68.80
68511;SHT31;55512;50.102;19.958;2023-01-30T17:49:45;3.91;68.72
68511;SHT31;55512;50.102;19.958;2023-01-30T17:52:10;3.90;68.69
68511;SHT31;55512;50.102;19.958;2023-01-30T17:54:37;3.91;68.65
68511;SHT31;55512;50.102;19.958;2023-01-30T17:57:04;3.93;68.58
68511;SHT31;55512;50.102;19.958;2023-01-30T17:59:33;3.93;68.50
68511;SHT31;55512;50.102;19.958;2023-01-30T18:01:59;3.96;68.47
68511;SHT31;55512;50.102;19.958;2023-01-30T18:04:25;3.98;68.40
68511;SHT31;55512;50.102;19.958;2023-01-30T18:06:54;3.96;68.36
68511;SHT31;55512;50.102;19.958;2023-01-30T18:09:29;3.97;68.34
68511;SHT31;55512;50.102;19.958;2023-01-30T18:11:55;4.01;68.30
68511;SHT31;55512;50.102;19.958;2023-01-30T18:14:20;4.03;68.29
68511;SHT31;55512;50.102;19.958;2023-01-30T18:16:46;4.03;68.20
68511;SHT31;55512;50.102;19.958;2023-01-30T18:19:13;4.06;68.20
68511;SHT31;55512;50.102;19.958;2023-01-30T18:21:48;4.08;68.19
68511;SHT31;55512;50.102;19.958;2023-01-30T18:24:14;4.10;68.15
68511;SHT31;55512;50.102;19.958;2023-01-30T18:26:40;4.12;68.09
68511;SHT31;55512;50.102;19.958;2023-01-30T18:29:06;4.12;68.23
68511;SHT31;55512;50.102;19.958;2023-01-30T18:31:35;4.13;68.16
68511;SHT31;55512;50.102;19.958;2023-01-30T18:34:03;4.14;68.09
68511;SHT31;55512;50.102;19.958;2023-01-30T18:36:28;4.16;68.10
68511;SHT31;55512;50.102;19.958;2023-01-30T18:38:58;4.16;68.19
68511;SHT31;55512;50.102;19.958;2023-01-30T18:41:23;4.14;68.40
68511;SHT31;55512;50.102;19.958;2023-01-30T18:43:56;4.12;68.64
68511;SHT31;55512;50.102;19.958;2023-01-30T18:46:28;4.10;68.87
68511;SHT31;55512;50.102;19.958;2023-01-30T18:48:55;4.09;68.97
68511;SHT31;55512;50.102;19.958;2023-01-30T18:51:23;4.12;69.10
68511;SHT31;55512;50.102;19.958;2023-01-30T18:53:52;4.13;69.10
68511;SHT31;55512;50.102;19.958;2023-01-30T18:56:23;4.13;69.09
68511;SHT31;55512;50.102;19.958;2023-01-30T18:58:58;4.14;69.08
68511;SHT31;55512;50.102;19.958;2023-01-30T19:01:30;4.12;69.07
68511;SHT31;55512;50.102;19.958;2023-01-30T19:04:03;4.11;69.09
68511;SHT31;55512;50.102;19.958;2023-01-30T19:06:33;4.11;69.08
68511;SHT31;55512;50.102;19.958;2023-01-30T19:09:02;4.13;69.05
68511;SHT31;55512;50.102;19.958;2023-01-30T19:11:28;4.13;69.07
68511;SHT31;55512;50.102;19.958;2023-01-30T19:14:13;4.14;69.15
68511;SHT31;55512;50.102;19.958;2023-01-30T19:16:38;4.13;69.24
68511;SHT31;55512;50.102;19.958;2023-01-30T19:19:06;4.11;69.30
68511;SHT31;55512;50.102;19.958;2023-01-30T19:21:33;4.12;69.35
68511;SHT31;55512;50.102;19.958;2023-01-30T19:24:03;4.12;69.39